Time;durP1;ratioP1;P1;durP2;ratioP2;P2;SDS_P1;SDS_P2;PMS_P1;PMS_P2;Temp;Humidity;BMP_temperature;BMP_pressure;BME280_temperature;BME280_humidity;BME280_pressure;Samples;Min_cycle;Max_cycle;Signal;HPM_P1;HPM_P2
2022/09/28 00:00:06;;;;;;;11.80;10.15;;;9.10;99.90;;;;;;5005823;28;20046;-80
2022/09/28 00:02:33;;;;;;;14.05;11.68;;;9.10;99.90;;;;;;5000835;28;20535;-80
2022/09/28 00:04:59;;;;;;;15.68;12.40;;;9.10;99.90;;;;;;4971896;28;20042;-80
2022/09/28 00:07:25;;;;;;;13.25;11.88;;;9.10;99.90;;;;;;4987886;28;20052;-79
2022/09/28 00:09:50;;;;;;;15.30;11.68;;;9.00;99.90;;;;;;4978662;28;20052;-79
2022/09/28 00:12:17;;;;;;;14.95;12.23;;;9.10;99.90;;;;;;4996655;28;20182;-79
2022/09/28 00:14:43;;;;;;;16.98;13.05;;;9.00;99.90;;;;;;4980331;28;20042;-79
2022/09/28 00:17:11;;;;;;;16.77;12.80;;;9.00;99.90;;;;;;4992609;28;20092;-79
2022/09/28 00:19:38;;;;;;;14.93;12.15;;;9.00;99.90;;;;;;4988824;28;20060;-79
2022/09/28 00:22:05;;;;;;;17.77;13.52;;;8.90;99.90;;;;;;4981232;28;20100;-79
2022/09/28 00:24:30;;;;;;;16.92;13.25;;;8.90;99.90;;;;;;5004730;28;20046;-80
2022/09/28 00:27:00;;;;;;;17.58;12.90;;;8.90;99.90;;;;;;4997089;28;20045;-79
2022/09/28 00:29:34;;;;;;;16.42;12.55;;;8.90;99.90;;;;;;4997650;28;20042;-80
2022/09/28 00:32:04;;;;;;;18.30;12.40;;;8.90;99.90;;;;;;5013382;28;20105;-80
2022/09/28 00:34:33;;;;;;;14.38;12.93;;;8.90;99.90;;;;;;5012489;28;20108;-80
2022/09/28 00:37:00;;;;;;;15.30;12.23;;;8.90;99.90;;;;;;5006147;28;20084;-80
2022/09/28 00:39:26;;;;;;;17.02;13.20;;;8.90;99.90;;;;;;5008581;28;20110;-80
2022/09/28 00:41:53;;;;;;;17.42;13.55;;;8.90;99.90;;;;;;5004341;28;20049;-80
2022/09/28 00:44:43;;;;;;;19.67;13.27;;;8.90;99.90;;;;;;4997631;28;20046;-80
2022/09/28 00:47:30;;;;;;;16.65;13.00;;;8.90;99.90;;;;;;5005746;28;20045;-79
2022/09/28 00:50:02;;;;;;;19.55;14.40;;;8.80;99.90;;;;;;4991637;28;20126;-78
2022/09/28 00:52:38;;;;;;;21.87;14.60;;;8.90;99.90;;;;;;4991975;28;20050;-80
2022/09/28 00:55:09;;;;;;;16.95;13.68;;;8.90;99.90;;;;;;4992373;28;20050;-80
2022/09/28 00:57:36;;;;;;;17.17;15.40;;;8.90;99.90;;;;;;4999821;28;20129;-79
2022/09/28 01:00:04;;;;;;;22.80;15.82;;;8.90;99.90;;;;;;4991597;28;20042;-79
2022/09/28 01:02:30;;;;;;;23.38;16.60;;;8.90;99.90;;;;;;4979308;28;20058;-80
2022/09/28 01:04:57;;;;;;;20.88;15.93;;;8.90;99.90;;;;;;4998575;28;20092;-80
2022/09/28 01:07:23;;;;;;;21.30;17.15;;;8.80;99.90;;;;;;4993715;28;20109;-79
2022/09/28 01:09:49;;;;;;;21.95;16.77;;;8.80;99.90;;;;;;4996074;28;20141;-79
2022/09/28 01:12:15;;;;;;;23.10;16.92;;;8.80;99.90;;;;;;4996849;28;20087;-79
2022/09/28 01:14:42;;;;;;;25.83;17.85;;;8.70;99.90;;;;;;5000665;28;20042;-79
2022/09/28 01:17:29;;;;;;;24.55;17.80;;;8.70;99.90;;;;;;4993229;28;20057;-80
2022/09/28 01:20:30;;;;;;;24.65;17.27;;;8.70;99.90;;;;;;4998701;28;20069;-80
2022/09/28 01:23:11;;;;;;;21.88;17.55;;;8.70;99.90;;;;;;4991980;28;20408;-80
2022/09/28 01:25:56;;;;;;;22.50;17.35;;;8.70;99.90;;;;;;4992423;28;20046;-79
2022/09/28 01:28:26;;;;;;;25.13;17.85;;;8.80;99.90;;;;;;4997502;28;20389;-79
2022/09/28 01:31:14;;;;;;;22.77;17.25;;;8.80;99.90;;;;;;4994007;28;20041;-81
2022/09/28 01:33:47;;;;;;;21.77;17.02;;;8.80;99.90;;;;;;4988732;28;20049;-80
2022/09/28 01:36:28;;;;;;;24.90;17.67;;;8.80;99.90;;;;;;4990440;28;20046;-79
2022/09/28 01:39:00;;;;;;;24.05;17.25;;;8.80;99.90;;;;;;4991641;28;20082;-80
2022/09/28 01:41:29;;;;;;;23.38;17.35;;;8.80;99.90;;;;;;4995375;28;20042;-79
2022/09/28 01:43:56;;;;;;;25.00;17.10;;;8.80;99.90;;;;;;4998727;28;20074;-79
2022/09/28 01:46:37;;;;;;;20.45;15.95;;;8.80;99.90;;;;;;4995363;28;20112;-79
2022/09/28 01:49:11;;;;;;;23.50;17.25;;;8.80;99.90;;;;;;4978493;28;20041;-79
2022/09/28 01:51:59;;;;;;;21.48;16.52;;;8.80;99.90;;;;;;4971293;28;20046;-79
2022/09/28 01:54:35;;;;;;;19.25;15.68;;;8.80;99.90;;;;;;4988384;28;20045;-79
2022/09/28 01:57:23;;;;;;;17.05;15.10;;;8.80;99.90;;;;;;4985493;28;20049;-78
2022/09/28 02:00:00;;;;;;;18.33;15.20;;;8.80;99.90;;;;;;4987522;28;20063;-79
2022/09/28 02:02:31;;;;;;;17.73;15.20;;;8.80;99.90;;;;;;4989683;28;20588;-79
2022/09/28 02:05:08;;;;;;;20.13;15.98;;;8.80;99.90;;;;;;4987751;28;20061;-79
2022/09/28 02:07:56;;;;;;;17.08;15.07;;;8.80;99.90;;;;;;4978701;28;20046;-79
2022/09/28 02:10:27;;;;;;;18.73;15.40;;;8.80;99.90;;;;;;4985760;28;20151;-78
2022/09/28 02:13:15;;;;;;;18.55;15.50;;;8.70;99.90;;;;;;4991324;28;20050;-78
2022/09/28 02:15:55;;;;;;;23.23;16.30;;;8.70;99.90;;;;;;4984941;28;20038;-79
2022/09/28 02:18:21;;;;;;;20.98;15.82;;;8.70;99.90;;;;;;4974894;28;20046;-79
2022/09/28 02:21:03;;;;;;;21.65;16.65;;;8.80;99.90;;;;;;4974088;28;20105;-79
2022/09/28 02:23:33;;;;;;;34.35;21.25;;;8.80;99.90;;;;;;4973293;28;20045;-78
2022/09/28 02:26:09;;;;;;;36.78;23.27;;;8.80;99.90;;;;;;4979959;28;20392;-79
2022/09/28 02:28:35;;;;;;;38.30;25.17;;;8.80;99.90;;;;;;4982521;28;20129;-79
2022/09/28 02:31:01;;;;;;;36.55;25.73;;;8.80;99.90;;;;;;4991266;28;20133;-79
2022/09/28 02:33:39;;;;;;;38.53;25.33;;;8.70;99.90;;;;;;4992257;28;20064;-80
2022/09/28 02:36:05;;;;;;;35.72;26.02;;;8.70;99.90;;;;;;4990955;28;20041;-79
2022/09/28 02:38:31;;;;;;;37.85;25.23;;;8.70;99.90;;;;;;4987828;28;20041;-79
2022/09/28 02:41:12;;;;;;;36.20;25.83;;;8.70;99.90;;;;;;4991550;28;20050;-79
2022/09/28 02:43:52;;;;;;;38.28;25.77;;;8.80;99.90;;;;;;4975886;28;20049;-79
2022/09/28 02:46:31;;;;;;;32.63;24.40;;;8.80;99.90;;;;;;5014257;28;20103;-80
2022/09/28 02:49:13;;;;;;;35.72;26.48;;;8.80;99.90;;;;;;5010595;28;20046;-80
2022/09/28 02:52:21;;;;;;;39.88;25.77;;;8.80;99.90;;;;;;4989452;28;20050;-80
2022/09/28 02:55:11;;;;;;;35.63;25.60;;;8.90;99.90;;;;;;4999879;28;20061;-80
2022/09/28 02:57:37;;;;;;;31.77;23.70;;;8.90;99.90;;;;;;5004902;28;20056;-80
2022/09/28 03:00:14;;;;;;;30.98;24.10;;;8.90;99.90;;;;;;4988492;28;20046;-80
2022/09/28 03:03:00;;;;;;;31.95;24.30;;;9.00;99.90;;;;;;5023739;28;20045;-80
2022/09/28 03:05:41;;;;;;;33.20;23.50;;;9.00;99.90;;;;;;4991767;28;20038;-79
2022/09/28 03:08:17;;;;;;;31.75;24.30;;;9.00;99.90;;;;;;4988365;28;20050;-81
2022/09/28 03:10:52;;;;;;;37.42;24.75;;;9.00;99.90;;;;;;4982831;28;20177;-81
2022/09/28 03:13:19;;;;;;;41.15;26.33;;;9.00;99.90;;;;;;4988832;28;20490;-81
2022/09/28 03:15:44;;;;;;;35.20;24.92;;;9.10;99.90;;;;;;4991441;28;20038;-81
2022/09/28 03:18:10;;;;;;;39.92;27.05;;;9.00;99.90;;;;;;4982841;28;20077;-81
2022/09/28 03:20:36;;;;;;;36.78;26.05;;;9.00;99.90;;;;;;5017572;28;20564;-80
2022/09/28 03:23:02;;;;;;;42.35;27.90;;;9.10;99.90;;;;;;4996149;28;20440;-79
2022/09/28 03:25:27;;;;;;;50.08;28.20;;;8.90;99.90;;;;;;5005199;28;20485;-79
2022/09/28 03:27:53;;;;;;;56.47;30.15;;;8.90;99.90;;;;;;5006311;28;20046;-79
2022/09/28 03:30:18;;;;;;;52.17;29.13;;;8.80;99.90;;;;;;4996585;28;20042;-79
2022/09/28 03:32:44;;;;;;;53.88;30.52;;;8.80;99.90;;;;;;5008945;28;20064;-79
2022/09/28 03:35:10;;;;;;;50.33;30.08;;;8.80;99.90;;;;;;4994414;28;20071;-79
2022/09/28 03:37:36;;;;;;;51.08;28.58;;;8.80;99.90;;;;;;4998739;28;20140;-79
2022/09/28 03:40:02;;;;;;;42.58;25.95;;;8.80;99.90;;;;;;5004188;28;20038;-79
2022/09/28 03:42:28;;;;;;;45.63;25.90;;;8.80;99.90;;;;;;5038456;28;20492;-79
2022/09/28 03:44:54;;;;;;;42.70;25.08;;;8.70;99.90;;;;;;5013814;28;20051;-79
2022/09/28 03:47:20;;;;;;;69.90;28.73;;;8.70;99.90;;;;;;5007376;28;20049;-79
2022/09/28 03:49:46;;;;;;;51.08;26.92;;;8.60;99.90;;;;;;5002188;28;20037;-79
2022/09/28 03:52:12;;;;;;;50.85;28.10;;;8.70;99.90;;;;;;4987853;28;20073;-79
2022/09/28 03:54:38;;;;;;;53.40;26.67;;;8.70;99.90;;;;;;4982397;28;20041;-79
2022/09/28 03:57:04;;;;;;;54.92;27.70;;;8.60;99.90;;;;;;5006747;28;20568;-80
2022/09/28 03:59:30;;;;;;;143.02;29.20;;;8.70;99.90;;;;;;5007210;28;20064;-79
2022/09/28 04:01:56;;;;;;;120.95;30.55;;;8.60;99.90;;;;;;5005377;28;20041;-79
2022/09/28 04:04:21;;;;;;;151.10;29.85;;;8.50;99.90;;;;;;4994129;28;20070;-79
2022/09/28 04:06:47;;;;;;;90.38;26.17;;;8.50;99.90;;;;;;5004485;28;20046;-79
2022/09/28 04:09:13;;;;;;;39.45;23.60;;;8.50;99.90;;;;;;4993197;28;20042;-79
2022/09/28 04:11:38;;;;;;;72.03;25.25;;;8.50;99.90;;;;;;5001160;28;20420;-80
2022/09/28 04:14:04;;;;;;;76.18;26.58;;;8.50;99.90;;;;;;5012644;28;20057;-79
2022/09/28 04:16:30;;;;;;;52.67;24.80;;;8.50;99.90;;;;;;4998906;28;20112;-79
2022/09/28 04:18:57;;;;;;;147.48;28.17;;;8.50;99.90;;;;;;4998783;28;20123;-79
2022/09/28 04:21:23;;;;;;;133.18;26.80;;;8.50;99.90;;;;;;5008757;28;20049;-79
2022/09/28 04:23:50;;;;;;;71.13;24.95;;;8.50;99.90;;;;;;5000284;28;20038;-79
2022/09/28 04:26:21;;;;;;;141.38;27.13;;;8.50;99.90;;;;;;5001684;28;20392;-79
2022/09/28 04:31:43;;;;;;;135.30;24.80;;;8.40;99.90;;;;;;4995973;28;20093;-79
2022/09/28 04:34:08;;;;;;;177.05;27.50;;;8.30;99.90;;;;;;4999489;28;20046;-79
2022/09/28 04:36:34;;;;;;;306.95;31.50;;;8.30;99.90;;;;;;5002375;28;20558;-79
2022/09/28 04:39:00;;;;;;;247.23;30.63;;;8.30;99.90;;;;;;4989959;28;20133;-78
2022/09/28 04:41:25;;;;;;;334.98;33.65;;;8.20;99.90;;;;;;4985124;28;20459;-78
2022/09/28 04:43:51;;;;;;;91.68;25.48;;;8.20;99.90;;;;;;4976523;28;20116;-78
2022/09/28 04:46:17;;;;;;;129.60;27.08;;;8.20;99.90;;;;;;4989769;28;20072;-78
2022/09/28 04:48:42;;;;;;;155.38;26.70;;;8.20;99.90;;;;;;4974011;28;20432;-79
2022/09/28 04:51:08;;;;;;;272.50;31.45;;;8.20;99.90;;;;;;4989336;28;20038;-78
2022/09/28 04:53:34;;;;;;;325.00;32.45;;;8.20;99.90;;;;;;4971671;28;20584;-80
2022/09/28 04:56:02;;;;;;;327.92;32.22;;;8.20;99.90;;;;;;4978467;28;20038;-80
2022/09/28 04:58:29;;;;;;;356.17;34.72;;;8.10;99.90;;;;;;4987698;28;20054;-81
2022/09/28 05:01:00;;;;;;;293.90;34.05;;;8.10;99.90;;;;;;4978206;28;20382;-79
2022/09/28 05:03:26;;;;;;;135.60;26.17;;;8.10;99.90;;;;;;5005348;28;20504;-79
2022/09/28 05:05:52;;;;;;;271.02;31.25;;;8.10;99.90;;;;;;5015693;28;20496;-79
2022/09/28 05:08:18;;;;;;;398.35;35.60;;;8.10;99.90;;;;;;5000361;28;20061;-79
2022/09/28 05:10:44;;;;;;;469.15;38.28;;;8.10;99.90;;;;;;4999667;28;20099;-80
2022/09/28 05:13:11;;;;;;;289.75;33.10;;;8.00;99.90;;;;;;4993953;28;20121;-79
2022/09/28 05:15:38;;;;;;;110.68;26.95;;;8.00;99.90;;;;;;5000400;28;20046;-79
2022/09/28 05:18:05;;;;;;;57.22;23.02;;;8.10;99.90;;;;;;4991687;28;20045;-79
2022/09/28 05:20:31;;;;;;;79.00;25.40;;;8.10;99.90;;;;;;4975858;28;20071;-78
2022/09/28 05:22:57;;;;;;;82.93;25.17;;;8.10;99.90;;;;;;4987285;28;20042;-79
2022/09/28 05:25:23;;;;;;;78.55;24.15;;;8.20;99.90;;;;;;4983353;28;20069;-79
2022/09/28 05:27:54;;;;;;;65.43;25.02;;;8.20;99.90;;;;;;4985756;28;20038;-79
2022/09/28 05:30:21;;;;;;;273.73;30.00;;;8.30;99.90;;;;;;4972136;28;20069;-79
2022/09/28 05:32:49;;;;;;;280.58;32.80;;;8.30;99.90;;;;;;4988636;28;20300;-78
2022/09/28 05:35:16;;;;;;;114.28;24.98;;;8.20;99.90;;;;;;4992497;28;20506;-78
2022/09/28 05:37:42;;;;;;;83.53;24.30;;;8.30;99.90;;;;;;4980049;28;20128;-78
2022/09/28 05:40:08;;;;;;;384.48;37.15;;;8.20;99.90;;;;;;5002212;28;20045;-80
2022/09/28 05:42:34;;;;;;;117.53;27.20;;;8.20;99.90;;;;;;4994972;28;20046;-77
2022/09/28 05:44:59;;;;;;;58.60;24.27;;;8.20;99.90;;;;;;4987436;28;20042;-78
2022/09/28 05:47:26;;;;;;;92.93;27.50;;;8.30;99.90;;;;;;4978159;28;20038;-78
2022/09/28 05:49:52;;;;;;;55.88;24.65;;;8.30;99.90;;;;;;4994300;28;20041;-78
2022/09/28 05:52:18;;;;;;;136.68;26.77;;;8.40;99.90;;;;;;4993385;28;20052;-78
2022/09/28 05:54:44;;;;;;;222.10;29.27;;;8.40;99.90;;;;;;4992549;28;20130;-80
2022/09/28 05:57:10;;;;;;;155.45;26.50;;;8.30;99.90;;;;;;4973341;28;20041;-79
2022/09/28 05:59:36;;;;;;;141.68;26.15;;;8.30;99.90;;;;;;4993774;28;20169;-80
2022/09/28 06:02:02;;;;;;;322.70;37.08;;;8.30;99.90;;;;;;4993777;28;20124;-81
2022/09/28 06:04:28;;;;;;;151.20;28.05;;;8.30;99.90;;;;;;4985211;28;20190;-80
2022/09/28 06:06:54;;;;;;;176.15;31.13;;;8.30;99.90;;;;;;5001614;28;20563;-80
2022/09/28 06:09:20;;;;;;;121.75;30.17;;;8.30;99.90;;;;;;5022390;28;20045;-80
2022/09/28 06:11:47;;;;;;;246.98;34.72;;;8.30;99.90;;;;;;4985283;28;21843;-80
2022/09/28 06:14:12;;;;;;;92.13;27.42;;;8.30;99.90;;;;;;4964195;28;20050;-81
2022/09/28 06:16:39;;;;;;;69.35;24.52;;;8.40;99.90;;;;;;4964096;28;20438;-79
2022/09/28 06:19:06;;;;;;;116.40;26.70;;;8.40;99.90;;;;;;4978276;28;20053;-82
2022/09/28 06:21:36;;;;;;;60.80;23.52;;;8.40;99.90;;;;;;4994235;28;20452;-78
2022/09/28 06:24:03;;;;;;;84.22;23.33;;;8.40;99.90;;;;;;4994572;28;20108;-83
2022/09/28 06:26:30;;;;;;;76.95;23.40;;;8.40;99.90;;;;;;4990770;28;20034;-78
2022/09/28 06:28:59;;;;;;;43.90;21.98;;;8.40;99.90;;;;;;4984000;28;20046;-83
2022/09/28 06:31:26;;;;;;;52.20;22.52;;;8.40;99.90;;;;;;5001361;28;20045;-79
2022/09/28 06:33:51;;;;;;;220.68;27.40;;;8.40;99.90;;;;;;4987921;28;20071;-80
2022/09/28 06:36:18;;;;;;;80.40;21.42;;;8.40;99.90;;;;;;5004415;28;20080;-82
2022/09/28 06:38:44;;;;;;;45.03;19.25;;;8.40;99.90;;;;;;4981875;28;20071;-79
2022/09/28 06:41:10;;;;;;;45.08;19.83;;;8.30;99.90;;;;;;4986363;28;20042;-83
2022/09/28 06:43:38;;;;;;;63.88;21.50;;;8.30;99.90;;;;;;4992129;28;20549;-83
2022/09/28 06:46:05;;;;;;;66.25;20.15;;;8.40;99.90;;;;;;4999007;28;20099;-78
2022/09/28 06:48:32;;;;;;;52.20;20.05;;;8.40;99.90;;;;;;5002275;28;20037;-79
2022/09/28 06:50:59;;;;;;;65.82;21.38;;;8.40;99.90;;;;;;5006135;28;20051;-81
2022/09/28 06:53:29;;;;;;;71.07;21.92;;;8.40;99.90;;;;;;5006378;28;20049;-83
2022/09/28 06:55:55;;;;;;;71.10;20.73;;;8.50;99.90;;;;;;5008561;28;20049;-83
2022/09/28 06:58:22;;;;;;;28.65;18.30;;;8.40;99.90;;;;;;4992210;28;20075;-83
2022/09/28 07:00:49;;;;;;;53.90;18.90;;;8.40;99.90;;;;;;5004909;28;20057;-83
2022/09/28 07:03:17;;;;;;;35.88;20.13;;;8.40;99.90;;;;;;4970323;28;20073;-83
2022/09/28 07:05:47;;;;;;;41.22;21.50;;;8.40;99.90;;;;;;4998535;28;20045;-83
2022/09/28 07:08:13;;;;;;;40.33;18.88;;;8.40;99.90;;;;;;5003419;28;20042;-83
2022/09/28 07:10:45;;;;;;;74.00;22.73;;;8.40;99.90;;;;;;4999235;28;20522;-82
2022/09/28 07:13:12;;;;;;;42.30;20.00;;;8.40;99.90;;;;;;5006568;28;20050;-82
2022/09/28 07:15:39;;;;;;;45.60;19.63;;;8.40;99.90;;;;;;4997890;28;20092;-82
2022/09/28 07:18:05;;;;;;;33.72;19.77;;;8.40;99.90;;;;;;5002051;28;20038;-83
2022/09/28 07:20:33;;;;;;;45.63;20.13;;;8.50;99.90;;;;;;5000662;28;20049;-82
2022/09/28 07:23:00;;;;;;;39.40;19.95;;;8.60;99.90;;;;;;4999461;28;20400;-83
2022/09/28 07:25:29;;;;;;;33.13;19.30;;;8.70;99.90;;;;;;5007998;28;20042;-83
2022/09/28 07:28:02;;;;;;;42.03;19.20;;;8.70;99.90;;;;;;4994086;28;20152;-82
2022/09/28 07:30:33;;;;;;;36.67;18.13;;;8.80;99.90;;;;;;5010817;28;20041;-81
2022/09/28 07:32:59;;;;;;;28.33;19.40;;;8.80;99.90;;;;;;5003196;28;20489;-81
2022/09/28 07:35:25;;;;;;;32.95;20.48;;;8.90;99.90;;;;;;5005661;28;20050;-82
2022/09/28 07:38:02;;;;;;;31.92;20.70;;;9.00;99.90;;;;;;5004825;28;20120;-82
2022/09/28 07:43:19;;;;;;;23.05;17.45;;;9.30;99.90;;;;;;5001398;28;20050;-81
2022/09/28 07:45:46;;;;;;;22.08;15.73;;;9.50;99.90;;;;;;4995792;28;20044;-81
2022/09/28 07:48:15;;;;;;;24.63;17.20;;;9.50;99.90;;;;;;4998923;28;20096;-80
2022/09/28 07:50:41;;;;;;;24.83;16.77;;;9.50;99.90;;;;;;4981032;28;20119;-79
2022/09/28 07:53:07;;;;;;;21.35;16.50;;;9.50;99.90;;;;;;4979824;28;20508;-79
2022/09/28 07:55:33;;;;;;;24.80;18.08;;;9.50;99.90;;;;;;5001161;28;20072;-79
2022/09/28 07:58:02;;;;;;;23.20;16.80;;;9.50;99.90;;;;;;4995088;28;20088;-80
2022/09/28 08:00:28;;;;;;;22.42;17.10;;;9.60;99.90;;;;;;4995276;28;20045;-80
2022/09/28 08:02:54;;;;;;;20.42;15.63;;;9.60;99.90;;;;;;4995132;28;20513;-82
2022/09/28 08:05:20;;;;;;;22.05;15.65;;;9.70;99.90;;;;;;4979437;28;20046;-72
2022/09/28 08:07:45;;;;;;;22.48;16.58;;;9.80;99.90;;;;;;4997081;28;20081;-72
2022/09/28 08:10:11;;;;;;;24.88;17.27;;;9.90;99.90;;;;;;4993441;28;20518;-80
2022/09/28 08:12:40;;;;;;;23.42;17.92;;;10.20;99.90;;;;;;4991443;28;20050;-81
2022/09/28 08:15:09;;;;;;;20.80;15.85;;;10.30;99.90;;;;;;4994279;28;20046;-81
2022/09/28 08:17:35;;;;;;;20.45;16.40;;;10.40;99.90;;;;;;5002032;28;20042;-79
2022/09/28 08:22:45;;;;;;;20.58;15.55;;;10.60;99.90;;;;;;4986095;28;20081;-80
2022/09/28 08:25:10;;;;;;;19.30;14.43;;;10.70;99.90;;;;;;5000686;28;20100;-79
2022/09/28 08:27:36;;;;;;;22.77;15.15;;;10.70;99.90;;;;;;4999487;28;20131;-80
2022/09/28 08:30:02;;;;;;;21.50;15.95;;;10.90;99.90;;;;;;4994746;28;20050;-79
2022/09/28 08:32:28;;;;;;;18.83;15.60;;;10.90;99.90;;;;;;5008538;28;20123;-80
2022/09/28 08:34:54;;;;;;;21.38;16.08;;;10.90;99.90;;;;;;5010901;28;20099;-79
2022/09/28 08:37:20;;;;;;;20.40;15.23;;;11.00;99.90;;;;;;5008677;28;20051;-79
2022/09/28 08:39:46;;;;;;;21.45;16.08;;;11.00;99.90;;;;;;5002444;28;20408;-80
2022/09/28 08:42:33;;;;;;;20.05;14.60;;;11.20;99.90;;;;;;5001856;28;20046;-79
2022/09/28 08:45:07;;;;;;;21.33;16.63;;;11.10;99.90;;;;;;4991303;28;20507;-79
2022/09/28 08:51:17;;;;;;;19.35;16.20;;;11.20;99.90;;;;;;4997083;28;20403;-79
2022/09/28 08:54:04;;;;;;;21.90;16.77;;;11.30;99.90;;;;;;4999033;28;20141;-79
2022/09/28 08:56:46;;;;;;;22.35;16.40;;;11.40;99.90;;;;;;4993578;28;20037;-79
2022/09/28 08:59:22;;;;;;;19.67;15.65;;;11.40;99.90;;;;;;4991314;28;20132;-82
2022/09/28 09:01:57;;;;;;;20.50;15.35;;;11.40;99.90;;;;;;4987198;28;20049;-81
2022/09/28 09:04:22;;;;;;;19.17;16.10;;;11.40;99.90;;;;;;4998351;28;20046;-81
2022/09/28 09:07:12;;;;;;;21.10;15.35;;;11.40;99.90;;;;;;4985091;28;20129;-81
2022/09/28 09:09:40;;;;;;;17.85;15.10;;;11.50;99.90;;;;;;4995678;28;20042;-79
2022/09/28 09:12:17;;;;;;;19.15;15.43;;;11.50;99.90;;;;;;4992214;28;20053;-79
2022/09/28 09:15:04;;;;;;;19.63;15.55;;;11.60;99.90;;;;;;4990891;28;20052;-79
2022/09/28 09:17:42;;;;;;;15.70;13.68;;;11.80;99.90;;;;;;4986483;28;20053;-79
2022/09/28 09:20:10;;;;;;;17.20;14.63;;;11.80;99.90;;;;;;4987951;28;20050;-78
2022/09/28 09:22:45;;;;;;;19.73;15.18;;;11.90;99.90;;;;;;4995054;28;20104;-78
2022/09/28 09:25:23;;;;;;;16.65;14.85;;;12.00;99.90;;;;;;4974719;28;20091;-78
2022/09/28 09:28:07;;;;;;;16.63;13.55;;;12.10;99.90;;;;;;5005767;28;20100;-78
2022/09/28 09:30:54;;;;;;;19.80;15.73;;;12.20;99.90;;;;;;4993719;28;20123;-78
2022/09/28 09:33:46;;;;;;;14.55;12.85;;;12.30;99.90;;;;;;5008425;28;20049;-78
2022/09/28 09:36:41;;;;;;;21.87;13.23;;;12.40;99.90;;;;;;5002043;28;20054;-78
2022/09/28 09:39:24;;;;;;;16.10;13.50;;;12.40;99.90;;;;;;4980182;28;20304;-78
2022/09/28 09:42:07;;;;;;;14.48;12.35;;;12.50;99.90;;;;;;4996931;28;20096;-78
2022/09/28 09:45:01;;;;;;;10.95;8.00;;;12.60;99.90;;;;;;4973111;28;20069;-78
2022/09/28 09:47:35;;;;;;;9.07;6.50;;;12.50;99.90;;;;;;4994967;28;20076;-78
2022/09/28 09:50:21;;;;;;;5.53;4.97;;;12.50;99.90;;;;;;4999228;28;20033;-78
2022/09/28 09:52:56;;;;;;;7.18;5.00;;;12.60;99.90;;;;;;5005388;28;20045;-78
2022/09/28 09:55:28;;;;;;;6.95;5.72;;;12.70;99.90;;;;;;4982081;28;20100;-78
2022/09/28 09:58:03;;;;;;;5.93;5.32;;;12.70;99.90;;;;;;5005220;28;20042;-78
2022/09/28 10:00:29;;;;;;;7.80;5.80;;;12.70;99.90;;;;;;5002920;28;20046;-78
2022/09/28 10:02:58;;;;;;;7.75;6.05;;;12.80;99.90;;;;;;4998167;28;20046;-78
2022/09/28 10:05:28;;;;;;;7.78;6.20;;;12.70;99.90;;;;;;4995961;28;20048;-78
2022/09/28 10:08:10;;;;;;;7.40;5.18;;;12.70;99.90;;;;;;4999710;28;20037;-78
2022/09/28 10:10:37;;;;;;;;;;;12.70;99.90;;;;;;5004190;28;20092;-78
2022/09/28 10:13:03;;;;;;;5.03;4.05;;;12.60;99.90;;;;;;4994294;28;19917;-78
2022/09/28 10:15:34;;;;;;;5.35;3.72;;;12.60;99.90;;;;;;4989445;28;20046;-77
2022/09/28 10:18:05;;;;;;;8.05;4.15;;;12.60;99.90;;;;;;4994810;28;20408;-78
2022/09/28 10:20:35;;;;;;;5.22;3.83;;;12.70;99.90;;;;;;4990993;28;20060;-78
2022/09/28 10:23:04;;;;;;;5.82;4.07;;;12.70;99.90;;;;;;4994515;28;20053;-79
2022/09/28 10:25:36;;;;;;;8.57;3.33;;;12.70;99.90;;;;;;4996468;28;20125;-79
2022/09/28 10:28:05;;;;;;;5.65;3.20;;;12.70;99.90;;;;;;4995725;28;20057;-79
2022/09/28 10:30:42;;;;;;;3.33;2.63;;;12.60;99.90;;;;;;4999747;28;20045;-78
2022/09/28 10:33:28;;;;;;;3.30;2.83;;;12.70;99.90;;;;;;4973662;28;20045;-82
2022/09/28 10:35:56;;;;;;;3.58;2.90;;;13.00;99.90;;;;;;4990917;28;20048;-82
2022/09/28 10:38:23;;;;;;;4.50;3.08;;;13.20;99.90;;;;;;4979376;28;20129;-81
2022/09/28 10:40:50;;;;;;;3.08;2.75;;;13.20;99.90;;;;;;4988705;28;20603;-79
2022/09/28 10:44:04;;;;;;;5.20;3.90;;;13.20;99.90;;;;;;4994415;28;20041;-80
2022/09/28 10:46:32;;;;;;;4.55;3.30;;;13.10;99.90;;;;;;4990187;28;20045;-77
2022/09/28 10:49:01;;;;;;;5.40;3.78;;;13.30;99.90;;;;;;4971846;28;20045;-79
2022/09/28 10:51:48;;;;;;;5.85;3.42;;;13.50;99.90;;;;;;4995213;28;20470;-78
2022/09/28 10:54:19;;;;;;;4.53;3.25;;;13.90;99.90;;;;;;4991241;28;20046;-79
2022/09/28 10:56:45;;;;;;;3.38;2.63;;;14.40;99.90;;;;;;4983182;28;20049;-82
2022/09/28 10:59:38;;;;;;;3.45;2.35;;;14.80;99.90;;;;;;4995879;28;20100;-78
2022/09/28 11:02:21;;;;;;;;;;;14.90;99.90;;;;;;5000555;28;20050;-79
2022/09/28 11:04:56;;;;;;;2.50;2.22;;;14.90;99.90;;;;;;4996378;28;20307;-79
2022/09/28 11:07:25;;;;;;;1.70;1.60;;;14.90;99.90;;;;;;5004905;28;20057;-78
2022/09/28 11:09:52;;;;;;;3.28;2.13;;;14.80;99.90;;;;;;4992102;28;20046;-80
2022/09/28 11:12:21;;;;;;;4.15;2.10;;;14.80;99.90;;;;;;4994043;28;20049;-77
2022/09/28 11:14:51;;;;;;;2.97;1.90;;;14.80;99.90;;;;;;4977005;28;20045;-78
2022/09/28 11:17:27;;;;;;;2.63;2.20;;;14.80;99.90;;;;;;4997161;28;20072;-78
2022/09/28 11:19:55;;;;;;;4.22;2.00;;;14.80;99.90;;;;;;4989070;28;20057;-79
2022/09/28 11:22:32;;;;;;;3.15;2.08;;;14.70;99.90;;;;;;4999483;28;20407;-78
2022/09/28 11:25:16;;;;;;;4.60;1.80;;;14.40;99.90;;;;;;4996218;28;20104;-78
2022/09/28 11:27:54;;;;;;;2.50;2.00;;;14.40;99.90;;;;;;4994599;28;20050;-78
2022/09/28 11:30:47;;;;;;;4.15;1.77;;;14.60;99.90;;;;;;4991135;28;20057;-78
2022/09/28 11:33:26;;;;;;;2.25;1.77;;;14.70;99.90;;;;;;5001677;28;20136;-78
2022/09/28 11:36:13;;;;;;;3.13;1.67;;;14.90;99.90;;;;;;4997551;28;20038;-78
2022/09/28 11:38:52;;;;;;;4.22;1.60;;;15.00;99.90;;;;;;5003310;28;20052;-78
2022/09/28 11:41:43;;;;;;;3.05;1.60;;;14.90;99.90;;;;;;5010041;28;20033;-78
2022/09/28 11:44:32;;;;;;;3.22;1.40;;;14.90;99.90;;;;;;4989443;28;20493;-78
2022/09/28 11:47:03;;;;;;;5.10;1.52;;;14.90;99.90;;;;;;5004141;28;20065;-78
2022/09/28 11:49:51;;;;;;;1.65;1.55;;;14.80;99.90;;;;;;5009406;28;20128;-78
2022/09/28 11:52:41;;;;;;;4.38;1.58;;;14.70;99.90;;;;;;5005189;28;20045;-77
2022/09/28 11:55:30;;;;;;;4.00;1.50;;;14.70;99.90;;;;;;4988405;28;20042;-75
2022/09/28 11:58:19;;;;;;;1.42;1.00;;;14.60;99.90;;;;;;5007560;28;20101;-79
2022/09/28 12:01:06;;;;;;;2.42;1.23;;;14.50;99.90;;;;;;5001049;28;20580;-79
2022/09/28 12:03:41;;;;;;;4.90;1.38;;;14.40;99.90;;;;;;4987242;28;20049;-79
2022/09/28 12:06:14;;;;;;;3.05;1.25;;;14.30;99.90;;;;;;4997659;28;20041;-79
2022/09/28 12:08:44;;;;;;;2.15;1.23;;;14.30;99.90;;;;;;4995625;28;20414;-79
2022/09/28 12:11:18;;;;;;;1.27;1.17;;;14.40;99.90;;;;;;5000908;28;20108;-79
2022/09/28 12:13:46;;;;;;;4.22;1.35;;;14.50;99.90;;;;;;5003490;28;20057;-79
2022/09/28 12:16:22;;;;;;;1.08;0.98;;;14.50;99.90;;;;;;5000286;28;20048;-78
2022/09/28 12:19:20;;;;;;;1.40;1.15;;;14.70;99.90;;;;;;4989078;28;20058;-71
2022/09/28 12:21:51;;;;;;;1.77;1.05;;;14.80;99.90;;;;;;5008055;28;20045;-71
2022/09/28 12:24:20;;;;;;;2.30;1.20;;;14.80;99.90;;;;;;4997565;28;20603;-70
2022/09/28 12:27:09;;;;;;;3.75;1.05;;;14.90;99.90;;;;;;4995264;28;20050;-71
2022/09/28 12:29:43;;;;;;;3.38;1.00;;;15.10;99.90;;;;;;5012333;28;20045;-79
2022/09/28 12:32:37;;;;;;;2.28;1.13;;;15.30;99.90;;;;;;4980144;28;20494;-79
2022/09/28 12:35:14;;;;;;;2.38;0.80;;;15.40;99.90;;;;;;4992508;28;20088;-79
2022/09/28 12:38:10;;;;;;;0.73;0.60;;;15.50;99.90;;;;;;4990452;28;20054;-78
2022/09/28 12:40:54;;;;;;;1.52;0.60;;;15.70;99.90;;;;;;4998816;28;20404;-79
2022/09/28 12:43:44;;;;;;;1.40;0.77;;;15.80;99.90;;;;;;4993747;28;20140;-77
2022/09/28 12:46:39;;;;;;;2.90;0.75;;;15.80;99.90;;;;;;5003739;28;20415;-79
2022/09/28 12:49:38;;;;;;;1.98;0.80;;;15.80;99.90;;;;;;5006876;28;20504;-79
2022/09/28 12:52:38;;;;;;;1.70;0.90;;;15.70;99.90;;;;;;4998039;28;20503;-79
2022/09/28 12:55:14;;;;;;;1.23;0.80;;;15.50;99.90;;;;;;4995341;28;20056;-78
2022/09/28 12:57:55;;;;;;;1.00;0.70;;;15.30;99.90;;;;;;4974856;28;20049;-80
2022/09/28 13:00:24;;;;;;;1.13;0.77;;;15.10;99.90;;;;;;4997738;28;20508;-79
2022/09/28 13:03:08;;;;;;;2.65;0.80;;;15.00;99.90;;;;;;5005318;28;20046;-77
2022/09/28 13:06:10;;;;;;;3.97;0.98;;;14.80;99.90;;;;;;5002813;28;20377;-77
2022/09/28 13:08:47;;;;;;;2.80;1.00;;;14.70;99.90;;;;;;4996797;28;20180;-76
2022/09/28 13:11:30;;;;;;;1.65;0.52;;;14.40;99.90;;;;;;4977083;28;20129;-77
2022/09/28 13:14:34;;;;;;;0.63;0.50;;;14.30;99.90;;;;;;4981694;28;20046;-77
2022/09/28 13:17:12;;;;;;;2.72;0.55;;;14.20;99.90;;;;;;4994902;28;20056;-78